Time;durP1;ratioP1;P1;durP2;ratioP2;P2;SDS_P1;SDS_P2;PMS_P1;PMS_P2;Temp;Humidity;BMP_temperature;BMP_pressure;BME280_temperature;BME280_humidity;BME280_pressure;Samples;Min_cycle;Max_cycle;Signal;HPM_P1;HPM_P2
2022/04/22 00:01:20;;;;;;;;;;;;;;;20.33;47.72;98834.13;7310246;19;129200;-41
2022/04/22 00:03:46;;;;;;;41.40;3.47;;;;;;;20.14;48.62;98823.81;7308244;19;156624;-40
2022/04/22 00:06:11;;;;;;;23.73;2.28;;;;;;;20.21;49.61;98832.75;7309625;19;130464;-41
2022/04/22 00:08:37;;;;;;;31.05;2.92;;;;;;;20.24;50.02;98832.44;7309546;19;140094;-38
2022/04/22 00:11:48;;;;;;;16.17;1.73;;;;;;;20.26;49.17;98833.91;7308037;19;155195;-41
2022/04/22 00:13:48;;;;;;;32.78;3.20;;;;;;;20.30;49.58;98835.28;7309694;19;129809;-41
2022/04/22 00:16:13;;;;;;;34.05;3.25;;;;;;;20.32;50.03;98832.50;7307675;19;158500;-41
2022/04/22 00:18:38;;;;;;;39.43;3.23;;;;;;;20.28;51.64;98820.75;7308821;19;158058;-41
2022/04/22 00:21:07;;;;;;;14.88;1.95;;;;;;;20.30;51.09;98827.44;7308663;19;128848;-41
2022/04/22 00:23:32;;;;;;;19.08;2.03;;;;;;;20.22;50.38;98806.50;7309744;19;129001;-39
2022/04/22 00:26:00;;;;;;;43.53;4.10;;;;;;;20.30;51.73;98814.38;7307960;19;152139;-36
2022/04/22 00:28:25;;;;;;;29.50;2.78;;;;;;;20.31;50.88;98810.00;7310616;19;129146;-43
2022/04/22 00:30:51;;;;;;;27.02;2.75;;;;;;;20.33;50.10;98813.25;7307962;19;129289;-39
2022/04/22 00:33:17;;;;;;;27.95;2.58;;;;;;;19.98;48.82;98802.81;7309537;19;128803;-41
2022/04/22 00:35:44;;;;;;;37.37;3.50;;;;;;;19.95;48.52;98803.09;7307693;19;129093;-41
2022/04/22 00:38:09;;;;;;;19.02;1.85;;;;;;;19.98;47.92;98798.38;7308648;19;130916;-39
2022/04/22 00:40:35;;;;;;;27.40;2.65;;;;;;;20.03;48.04;98805.78;7307403;19;130043;-41
2022/04/22 00:43:13;;;;;;;21.20;2.08;;;;;;;20.02;47.54;98804.13;7309013;19;153752;-42
2022/04/22 00:45:38;;;;;;;25.33;2.42;;;;;;;20.01;47.94;98802.50;7307722;19;129588;-36
2022/04/22 00:48:04;;;;;;;6.57;1.27;;;;;;;20.04;47.77;98796.97;7307948;19;158448;-39
2022/04/22 00:50:30;;;;;;;30.70;2.78;;;;;;;20.05;47.35;98793.41;7308681;19;128884;-40
2022/04/22 00:52:55;;;;;;;22.92;2.20;;;;;;;19.96;47.75;98781.25;7307545;19;128871;-42
2022/04/22 00:55:21;;;;;;;28.88;2.85;;;;;;;20.08;47.17;98793.91;7310000;19;131845;-36
2022/04/22 00:57:47;;;;;;;23.47;2.30;;;;;;;20.16;47.51;98794.03;7315894;19;129644;-40
2022/04/22 01:00:12;;;;;;;23.13;2.25;;;;;;;20.26;48.01;98791.34;7314933;19;150585;-40
2022/04/22 01:02:37;;;;;;;18.00;2.05;;;;;;;20.12;48.83;98768.34;7316360;19;129459;-37
2022/04/22 01:10:31;;;;;;;12.00;1.52;;;;;;;20.17;51.22;98766.97;7315406;19;129192;-40
2022/04/22 01:12:56;;;;;;;19.17;1.95;;;;;;;20.28;50.95;98781.59;7311878;19;154615;-40
2022/04/22 01:15:22;;;;;;;39.03;4.13;;;;;;;20.28;50.82;98768.53;7315402;19;129891;-37
2022/04/22 01:17:48;;;;;;;26.17;2.53;;;;;;;20.29;50.77;98771.00;7314346;19;129061;-39
2022/04/22 01:20:13;;;;;;;25.10;2.42;;;;;;;20.30;50.32;98774.41;7315280;19;128812;-42
2022/04/22 01:22:38;;;;;;;28.85;2.80;;;;;;;20.29;50.59;98776.22;7314376;19;139692;-42
2022/04/22 01:25:04;;;;;;;18.75;2.22;;;;;;;20.23;51.27;98760.34;7314606;19;159490;-41
2022/04/22 01:27:31;;;;;;;24.70;2.57;;;;;;;20.27;51.42;98762.50;7314343;19;130333;-39
2022/04/22 01:30:06;;;;;;;26.27;2.60;;;;;;;19.99;48.81;98760.09;7315248;19;129936;-41
2022/04/22 01:32:31;;;;;;;26.02;2.70;;;;;;;19.98;48.47;98761.06;7313451;19;130948;-43
2022/04/22 01:34:56;;;;;;;24.48;2.35;;;;;;;19.98;48.03;98768.91;7314115;19;129096;-40
2022/04/22 01:37:22;;;;;;;34.40;3.35;;;;;;;20.02;47.67;98762.38;7313781;19;129202;-42
2022/04/22 01:39:47;;;;;;;63.70;5.03;;;;;;;20.07;48.48;98773.19;7313512;19;129864;-38
2022/04/22 01:42:12;;;;;;;31.80;3.25;;;;;;;20.02;48.10;98767.59;7310979;19;154718;-42
2022/04/22 01:44:37;;;;;;;37.60;3.50;;;;;;;20.07;47.64;98775.81;7313361;19;159028;-38
2022/04/22 01:47:03;;;;;;;19.30;1.87;;;;;;;20.08;47.38;98767.03;7313166;19;137511;-38
2022/04/22 01:49:28;;;;;;;27.33;2.63;;;;;;;20.12;47.11;98763.13;7315888;19;129403;-41
2022/04/22 01:51:54;;;;;;;35.90;3.53;;;;;;;20.12;46.91;98773.56;7308294;19;154743;-38
2022/04/22 01:54:20;;;;;;;28.17;2.92;;;;;;;20.13;47.42;98764.78;7314465;19;130135;-40
2022/04/22 01:56:45;;;;;;;39.83;3.80;;;;;;;20.29;47.85;98771.00;7311497;19;157508;-42
2022/04/22 01:59:10;;;;;;;50.22;4.68;;;;;;;20.24;48.95;98773.25;7310856;19;154707;-40
2022/04/22 02:01:35;;;;;;;16.35;1.95;;;;;;;20.16;49.82;98749.66;7311119;19;154449;-41
2022/04/22 02:04:01;;;;;;;29.35;2.97;;;;;;;20.25;50.08;98768.81;7311695;19;158701;-39
2022/04/22 02:06:28;;;;;;;12.57;1.88;;;;;;;20.27;50.54;98761.66;7308791;19;158474;-41
2022/04/22 02:08:53;;;;;;;;;;;;;;;20.33;51.47;98763.66;7314444;19;129459;-38
2022/04/22 02:11:18;;;;;;;12.43;1.90;;;;;;;20.32;49.59;98754.19;7311008;19;154125;-41
2022/04/22 02:13:43;;;;;;;13.97;1.93;;;;;;;20.19;50.44;98738.13;7312844;19;159034;-41
2022/04/22 02:16:09;;;;;;;34.90;3.65;;;;;;;20.30;51.30;98756.13;7310235;19;158419;-42
2022/04/22 02:18:37;;;;;;;20.63;2.10;;;;;;;20.31;50.38;98744.75;7314377;19;129410;-42
2022/04/22 02:21:06;;;;;;;19.35;2.08;;;;;;;20.31;51.50;98740.31;7312704;19;128901;-41
2022/04/22 02:23:32;;;;;;;18.88;2.20;;;;;;;20.21;51.57;98730.97;7314722;19;130113;-40
2022/04/22 02:25:58;;;;;;;18.03;2.17;;;;;;;20.24;49.73;98743.69;7313602;19;129935;-41
2022/04/22 02:28:34;;;;;;;19.10;2.17;;;;;;;20.00;48.98;98743.47;7314812;19;130051;-39
2022/04/22 02:31:05;;;;;;;29.02;3.22;;;;;;;20.02;48.96;98731.09;7312079;19;130655;-38
2022/04/22 02:33:31;;;;;;;32.22;3.33;;;;;;;20.01;48.51;98734.69;7310342;19;131104;-42
2022/04/22 02:35:56;;;;;;;42.42;3.78;;;;;;;20.07;48.21;98734.06;7311491;19;130143;-39
2022/04/22 02:38:22;;;;;;;29.20;2.75;;;;;;;20.02;47.40;98723.25;7311508;19;155368;-40
2022/04/22 02:46:15;;;;;;;36.47;3.55;;;;;;;20.09;47.01;98726.91;7312043;19;129941;-41
2022/04/22 02:48:40;;;;;;;18.92;2.10;;;;;;;20.02;47.06;98710.22;7312482;19;154558;-39
2022/04/22 02:51:05;;;;;;;21.35;2.30;;;;;;;20.34;47.59;98715.72;7309788;19;154149;-41
2022/04/22 02:53:31;;;;;;;20.83;2.17;;;;;;;20.29;48.49;98723.19;7309595;19;158423;-41
2022/04/22 02:55:56;;;;;;;19.25;2.17;;;;;;;20.25;49.34;98727.88;7311523;19;158675;-39
2022/04/22 02:58:22;;;;;;;30.70;2.95;;;;;;;20.24;49.62;98715.81;7313359;19;129570;-40
2022/04/22 03:00:47;;;;;;;23.70;2.55;;;;;;;20.26;50.41;98711.25;7313029;19;129849;-39
2022/04/22 03:03:13;;;;;;;31.75;3.38;;;;;;;20.27;50.78;98715.50;7310001;19;159064;-37
2022/04/22 03:05:38;;;;;;;27.88;2.85;;;;;;;20.28;50.65;98706.69;7308881;19;129752;-37
2022/04/22 03:08:05;;;;;;;39.22;3.35;;;;;;;20.29;50.83;98704.91;7313200;19;129275;-41
2022/04/22 03:10:30;;;;;;;20.00;2.25;;;;;;;20.30;50.71;98704.75;7312657;19;129840;-42
2022/04/22 03:12:56;;;;;;;34.60;3.50;;;;;;;20.27;50.53;98694.63;7310122;19;130041;-38
2022/04/22 03:15:21;;;;;;;45.20;4.47;;;;;;;20.31;51.43;98695.16;7310426;19;158364;-39
2022/04/22 03:17:46;;;;;;;23.10;2.70;;;;;;;20.22;51.48;98683.81;7310555;19;154553;-38
2022/04/22 03:20:12;;;;;;;26.77;2.85;;;;;;;20.31;51.66;98697.75;7312093;19;129079;-40
2022/04/22 03:22:37;;;;;;;30.00;3.05;;;;;;;19.91;49.17;98679.97;7311914;19;158513;-39
2022/04/22 03:25:02;;;;;;;20.30;2.00;;;;;;;19.97;48.43;98696.78;7311323;19;145725;-39
2022/04/22 03:27:28;;;;;;;21.65;2.20;;;;;;;19.97;48.25;98702.84;7311527;19;130138;-39
2022/04/22 03:29:53;;;;;;;26.25;2.70;;;;;;;19.99;47.88;98687.88;7312231;19;130153;-40
2022/04/22 03:32:18;;;;;;;44.33;4.43;;;;;;;20.05;47.72;98694.25;7307397;19;158141;-39
2022/04/22 03:34:44;;;;;;;33.67;3.30;;;;;;;20.08;47.37;98691.38;7307476;19;158207;-41
2022/04/22 03:37:09;;;;;;;12.33;1.73;;;;;;;20.11;47.69;98688.44;7309189;19;146533;-38
2022/04/22 03:39:34;;;;;;;26.83;2.70;;;;;;;20.09;47.18;98695.59;7309528;19;154677;-40
2022/04/22 03:42:00;;;;;;;20.70;2.05;;;;;;;20.03;47.34;98685.78;7307278;19;158633;-41
2022/04/22 03:44:26;;;;;;;23.23;2.42;;;;;;;20.27;47.24;98699.84;7310849;19;129310;-37
2022/04/22 03:46:51;;;;;;;22.13;2.47;;;;;;;20.24;48.98;98694.94;7310960;19;129347;-36
2022/04/22 03:49:16;;;;;;;28.58;2.90;;;;;;;20.23;49.57;98693.28;7309966;19;147466;-41
2022/04/22 03:51:42;;;;;;;31.85;3.25;;;;;;;20.24;50.05;98691.50;7308626;19;148556;-39
2022/04/22 03:54:08;;;;;;;21.60;2.47;;;;;;;20.23;50.33;98688.06;7308028;19;152829;-39
2022/04/22 03:59:17;;;;;;;28.83;2.97;;;;;;;20.28;50.90;98696.25;7311494;19;129131;-40
2022/04/22 04:01:43;;;;;;;39.45;3.80;;;;;;;20.30;50.96;98698.72;7306291;19;130272;-40
2022/04/22 04:04:08;;;;;;;21.03;2.17;;;;;;;20.31;50.96;98695.16;7310418;19;130897;-38
2022/04/22 04:06:35;;;;;;;27.65;2.88;;;;;;;20.29;51.03;98697.91;7307388;19;154529;-42
2022/04/22 04:17:14;;;;;;;53.58;4.25;;;;;;;19.95;48.96;98681.31;7307661;19;129971;-41
2022/04/22 04:25:08;;;;;;;25.85;2.47;;;;;;;20.04;47.68;98679.56;7309314;19;129574;-38
2022/04/22 04:27:34;;;;;;;56.30;4.93;;;;;;;20.05;48.00;98678.59;7307393;19;130446;-38
2022/04/22 04:29:59;;;;;;;32.53;3.25;;;;;;;20.03;47.76;98681.34;7309026;19;129635;-41
2022/04/22 04:32:25;;;;;;;29.52;2.92;;;;;;;20.07;47.81;98671.44;7315816;19;129581;-41
2022/04/22 04:34:50;;;;;;;29.45;3.30;;;;;;;20.10;47.30;98676.34;7313156;19;130490;-39
2022/04/22 04:37:16;;;;;;;54.08;4.85;;;;;;;20.00;47.49;98668.63;7311799;19;155194;-40
2022/04/22 04:39:41;;;;;;;27.17;2.72;;;;;;;20.13;47.26;98683.91;7316885;19;128868;-41
2022/04/22 04:42:08;;;;;;;21.23;2.20;;;;;;;20.16;47.37;98688.84;7313233;19;141111;-39
2022/04/22 04:44:34;;;;;;;24.67;2.58;;;;;;;20.32;47.80;98689.78;7316095;19;130615;-37
2022/04/22 04:46:59;;;;;;;25.10;2.78;;;;;;;20.26;49.26;98686.97;7312025;19;129699;-35
2022/04/22 04:49:27;;;;;;;26.35;2.75;;;;;;;20.23;49.95;98682.84;7315000;19;153041;-32
2022/04/22 04:51:52;;;;;;;29.20;3.03;;;;;;;20.25;49.97;98674.84;7312455;19;129680;-41
2022/04/22 04:54:18;;;;;;;38.97;3.75;;;;;;;20.17;50.27;98661.75;7317558;19;130525;-35
2022/04/22 04:56:43;;;;;;;21.38;2.25;;;;;;;20.29;50.94;98677.03;7312833;19;155963;-33
2022/04/22 04:59:08;;;;;;;21.63;2.33;;;;;;;20.31;51.10;98679.47;7315967;19;153045;-37
2022/04/22 05:01:34;;;;;;;15.82;1.75;;;;;;;20.32;50.83;98683.72;7312187;19;158311;-32
2022/04/22 05:03:59;;;;;;;27.08;2.75;;;;;;;20.30;51.41;98678.66;7314207;19;138201;-37
2022/04/22 05:06:24;;;;;;;48.47;4.57;;;;;;;20.33;51.53;98677.50;7313216;19;154565;-36
2022/04/22 05:08:50;;;;;;;9.95;1.70;;;;;;;20.31;51.58;98679.47;7313414;19;152428;-37
2022/04/22 05:11:15;;;;;;;26.58;3.17;;;;;;;20.31;51.43;98685.50;7313663;19;158158;-35
2022/04/22 05:13:40;;;;;;;57.67;4.90;;;;;;;20.08;48.56;98680.94;7309410;19;158455;-33
2022/04/22 05:16:05;;;;;;;17.45;2.08;;;;;;;19.98;48.72;98674.97;7311997;19;154563;-34
2022/04/22 05:18:31;;;;;;;25.20;2.47;;;;;;;19.96;48.59;98663.88;7314799;19;153685;-35
2022/04/22 05:20:56;;;;;;;32.70;3.05;;;;;;;19.96;47.58;98658.66;7310363;19;150572;-37
2022/04/22 05:23:22;;;;;;;34.53;3.55;;;;;;;20.10;48.14;98671.13;7312732;19;130298;-37
2022/04/22 05:25:48;;;;;;;46.25;3.80;;;;;;;20.11;48.23;98670.19;7305569;19;129193;-42
2022/04/22 05:28:13;;;;;;;34.35;3.33;;;;;;;20.07;47.42;98677.47;7310089;19;129453;-35
2022/04/22 05:33:43;;;;;;;42.08;3.97;;;;;;;20.13;47.73;98670.84;7304888;19;129845;-40
2022/04/22 05:36:09;;;;;;;;;;;;;;;20.12;47.70;98671.81;7306786;19;129390;-40
2022/04/22 05:38:34;;;;;;;40.10;3.25;;;;;;;20.14;46.94;98677.69;7308384;19;129969;-39
2022/04/22 05:41:00;;;;;;;24.08;2.65;;;;;;;20.06;46.90;98648.94;7311741;19;129151;-34
2022/04/22 05:43:25;;;;;;;23.08;2.50;;;;;;;20.27;47.58;98667.69;7313279;19;129130;-31
2022/04/22 05:45:50;;;;;;;28.27;3.03;;;;;;;20.22;48.12;98654.28;7314479;19;130587;-38
2022/04/22 05:48:15;;;;;;;44.00;4.18;;;;;;;20.29;48.80;98665.75;7313322;19;129055;-32
2022/04/22 05:50:41;;;;;;;26.07;3.00;;;;;;;20.27;49.73;98672.91;7312696;19;159437;-34
2022/04/22 05:53:06;;;;;;;14.07;1.73;;;;;;;20.28;49.51;98662.31;7313661;19;129483;-36
2022/04/22 05:55:32;;;;;;;16.58;2.40;;;;;;;20.34;49.75;98656.50;7312660;19;129419;-34
2022/04/22 05:57:59;;;;;;;40.72;3.42;;;;;;;20.32;49.98;98663.66;7314404;19;130800;-32
2022/04/22 06:00:26;;;;;;;37.15;3.70;;;;;;;20.34;50.66;98659.13;7310629;19;131069;-33
2022/04/22 06:02:53;;;;;;;34.75;3.63;;;;;;;20.31;51.41;98663.81;7314163;19;129339;-37
2022/04/22 06:05:20;;;;;;;28.55;3.42;;;;;;;20.33;51.39;98669.69;7314084;19;129105;-40
2022/04/22 06:07:46;;;;;;;30.13;3.08;;;;;;;20.33;50.70;98667.91;7315124;19;129770;-34
2022/04/22 06:10:32;;;;;;;12.52;1.88;;;;;;;20.33;50.91;98674.91;7312945;19;129047;-35
2022/04/22 06:12:58;;;;;;;18.88;2.22;;;;;;;20.33;51.08;98670.50;7313802;19;130671;-38
2022/04/22 06:15:24;;;;;;;;;;;;;;;20.11;49.15;98664.97;7314387;19;129119;-35
2022/04/22 06:17:51;;;;;;;26.40;3.03;;;;;;;20.05;48.32;98662.94;7316064;19;129190;-40
2022/04/22 06:20:17;;;;;;;20.35;2.55;;;;;;;20.05;47.98;98661.16;7313479;19;131446;-33
2022/04/22 06:22:42;;;;;;;28.35;3.03;;;;;;;20.06;47.70;98659.38;7315639;19;130057;-30
2022/04/22 06:25:09;;;;;;;16.50;1.80;;;;;;;20.10;48.17;98655.47;7313856;19;128959;-39
2022/04/22 06:27:38;;;;;;;21.00;2.42;;;;;;;20.05;47.30;98655.94;7308300;19;129863;-36
2022/04/22 06:30:14;;;;;;;22.00;2.45;;;;;;;20.07;47.75;98650.56;7313918;19;130397;-33
2022/04/22 06:32:44;;;;;;;29.08;2.95;;;;;;;20.09;47.05;98640.81;7311727;19;129789;-34
2022/04/22 06:35:11;;;;;;;23.02;2.25;;;;;;;20.09;47.37;98644.25;7315154;19;129063;-39
2022/04/22 06:37:41;;;;;;;20.52;2.13;;;;;;;20.14;47.16;98631.56;7312369;19;129041;-38
2022/04/22 06:45:47;;;;;;;25.05;2.85;;;;;;;20.28;48.99;98628.41;7311060;19;130580;-30
2022/04/22 06:48:21;;;;;;;27.50;2.90;;;;;;;20.25;49.81;98633.94;7314430;19;130581;-40
2022/04/22 06:50:49;;;;;;;49.65;4.30;;;;;;;20.15;49.61;98612.34;7309902;19;130240;-37
2022/04/22 06:53:19;;;;;;;33.10;3.30;;;;;;;20.28;50.39;98628.41;7308278;19;130486;-34
2022/04/22 06:55:47;;;;;;;28.52;2.97;;;;;;;20.29;50.57;98629.22;7309982;19;129364;-33
2022/04/22 06:58:15;;;;;;;22.88;2.60;;;;;;;20.31;50.44;98627.28;7311801;19;131396;-31
2022/04/22 07:00:41;;;;;;;17.85;2.17;;;;;;;20.33;50.61;98635.75;7309882;19;129561;-39
2022/04/22 07:03:08;;;;;;;36.72;3.63;;;;;;;20.33;51.42;98627.91;7309703;19;129376;-39
2022/04/22 07:05:34;;;;;;;30.45;3.10;;;;;;;20.33;50.70;98630.53;7308062;19;129769;-32
2022/04/22 07:08:02;;;;;;;12.73;1.70;;;;;;;20.34;50.26;98629.56;7313599;19;128836;-34
2022/04/22 07:10:29;;;;;;;27.17;2.85;;;;;;;20.34;51.01;98634.81;7311181;19;130212;-36
2022/04/22 07:12:56;;;;;;;15.80;2.28;;;;;;;20.33;51.16;98635.75;7311747;19;130929;-33
2022/04/22 07:15:22;;;;;;;68.05;6.40;;;;;;;19.99;48.73;98632.25;7310934;19;129028;-38
2022/04/22 07:17:47;;;;;;;32.42;3.42;;;;;;;20.00;48.13;98631.31;7312603;19;129260;-35
2022/04/22 07:20:13;;;;;;;31.98;3.50;;;;;;;20.00;48.46;98639.91;7312550;19;130990;-38
2022/04/22 07:22:40;;;;;;;28.35;2.58;;;;;;;20.02;48.16;98632.78;7311629;19;129216;-35
2022/04/22 07:25:07;;;;;;;20.13;2.30;;;;;;;20.04;47.66;98630.00;7313024;19;129237;-39
2022/04/22 07:27:33;;;;;;;;;;;;;;;20.06;47.49;98622.84;7311740;19;129592;-32
2022/04/22 07:29:59;;;;;;;24.73;2.63;;;;;;;20.06;47.31;98628.91;7312003;19;132441;-34
2022/04/22 07:32:27;;;;;;;81.25;7.03;;;;;;;20.14;47.21;98630.72;7311196;19;131001;-37
2022/04/22 07:34:54;;;;;;;29.52;3.00;;;;;;;20.11;47.45;98631.03;7312655;19;129625;-33
2022/04/22 07:37:20;;;;;;;29.98;3.17;;;;;;;20.13;47.61;98626.50;7311203;19;129556;-33
2022/04/22 07:39:46;;;;;;;30.20;3.15;;;;;;;20.18;47.06;98622.47;7310139;19;130792;-38
2022/04/22 07:42:17;;;;;;;22.75;2.45;;;;;;;20.15;47.34;98619.34;7308950;19;129345;-37
2022/04/22 07:47:30;;;;;;;32.97;3.07;;;;;;;20.27;48.77;98618.94;7312616;19;129234;-38
2022/04/22 07:49:55;;;;;;;19.45;2.30;;;;;;;20.27;49.93;98620.72;7312378;19;130060;-32
2022/04/22 07:52:20;;;;;;;26.02;2.72;;;;;;;20.30;50.05;98625.63;7310144;19;154612;-35
2022/04/22 07:54:45;;;;;;;28.17;2.93;;;;;;;20.30;51.18;98617.78;7310584;19;155531;-31
2022/04/22 07:57:11;;;;;;;22.30;2.50;;;;;;;20.33;50.06;98615.69;7310018;19;154412;-36
2022/04/22 07:59:36;;;;;;;21.87;2.40;;;;;;;20.31;50.90;98609.00;7309550;19;158256;-35
2022/04/22 08:02:02;;;;;;;12.43;2.00;;;;;;;20.33;50.64;98604.44;7307083;19;159207;-33
2022/04/22 08:04:28;;;;;;;29.73;3.07;;;;;;;20.33;51.02;98604.44;7310482;19;129242;-32
2022/04/22 08:06:53;;;;;;;30.73;3.15;;;;;;;20.34;51.27;98611.31;7315869;19;129050;-38
2022/04/22 08:09:18;;;;;;;28.80;3.13;;;;;;;20.32;51.33;98615.84;7316885;19;159345;-33
2022/04/22 08:11:43;;;;;;;27.63;2.77;;;;;;;20.33;51.78;98607.88;7315178;19;157729;-36
2022/04/22 08:14:12;;;;;;;20.93;2.57;;;;;;;20.34;51.56;98606.09;7312423;19;155152;-35
2022/04/22 08:16:38;;;;;;;15.82;2.00;;;;;;;20.06;48.91;98607.19;7316982;19;128916;-34
2022/04/22 08:19:03;;;;;;;22.17;2.38;;;;;;;20.02;48.35;98609.28;7317935;19;129522;-38
2022/04/22 08:21:33;;;;;;;23.45;2.40;;;;;;;20.06;48.38;98610.63;7314581;19;158765;-33
2022/04/22 08:23:58;;;;;;;24.10;2.42;;;;;;;20.02;48.24;98606.69;7317216;19;129043;-35
2022/04/22 08:26:23;;;;;;;26.33;2.60;;;;;;;20.01;47.99;98599.00;7316123;19;130029;-33
2022/04/22 08:28:49;;;;;;;29.60;3.20;;;;;;;20.04;47.69;98585.66;7316301;19;158526;-31
2022/04/22 08:31:16;;;;;;;21.38;2.33;;;;;;;20.09;47.78;98596.44;7315007;19;159587;-34
2022/04/22 08:33:45;;;;;;;28.63;2.88;;;;;;;20.09;47.61;98602.50;7315955;19;129088;-40
2022/04/22 08:36:11;;;;;;;17.55;1.88;;;;;;;20.13;47.86;98603.00;7316411;19;129012;-33
2022/04/22 08:38:36;;;;;;;20.73;2.13;;;;;;;20.13;47.08;98598.59;7319376;19;130615;-38
2022/04/22 08:41:02;;;;;;;27.42;2.65;;;;;;;20.11;47.60;98595.34;7315325;19;157702;-36
2022/04/22 08:43:29;;;;;;;16.80;1.90;;;;;;;20.23;47.84;98598.53;7318579;19;128893;-33
2022/04/22 08:45:55;;;;;;;28.08;2.95;;;;;;;20.32;47.83;98608.03;7316197;19;129314;-32
2022/04/22 08:51:08;;;;;;;19.95;2.13;;;;;;;20.26;49.77;98595.59;7317680;19;129041;-39
2022/04/22 08:53:34;;;;;;;28.15;2.72;;;;;;;20.27;50.15;98586.78;7315668;19;129192;-32
2022/04/22 08:56:02;;;;;;;18.20;2.13;;;;;;;20.28;50.23;98580.63;7317026;19;129105;-34
2022/04/22 08:58:27;;;;;;;29.30;3.08;;;;;;;20.34;50.13;98577.38;7316650;19;129371;-34
2022/04/22 09:00:54;;;;;;;19.13;2.45;;;;;;;20.32;49.73;98576.69;7316386;19;130327;-35
2022/04/22 09:03:20;;;;;;;;;;;;;;;20.27;51.07;98573.75;7317232;19;129171;-31
2022/04/22 09:05:45;;;;;;;23.10;2.47;;;;;;;20.35;50.97;98581.59;7317116;19;129596;-33
2022/04/22 09:08:12;;;;;;;16.73;2.40;;;;;;;20.35;50.76;98581.59;7315569;19;129902;-38
2022/04/22 09:10:38;;;;;;;20.67;2.15;;;;;;;20.35;51.07;98571.16;7316706;19;130680;-37
2022/04/22 09:13:09;;;;;;;21.73;2.20;;;;;;;20.33;51.17;98570.50;7316450;19;129133;-34
2022/04/22 09:15:36;;;;;;;27.08;3.03;;;;;;;20.23;50.18;98572.44;7317330;19;130282;-35
2022/04/22 09:18:12;;;;;;;;;;;;;;;20.01;48.47;98565.09;7317156;19;129073;-35
2022/04/22 09:20:39;;;;;;;9.18;1.27;;;;;;;20.02;48.51;98553.69;7315478;19;130879;-38
2022/04/22 09:23:34;;;;;;;18.88;1.83;;;;;;;20.04;48.42;98554.34;7316040;19;130869;-33
2022/04/22 09:26:01;;;;;;;26.65;2.70;;;;;;;20.05;47.97;98548.97;7315516;19;130640;-37
2022/04/22 09:28:26;;;;;;;27.05;2.63;;;;;;;20.09;47.89;98554.69;7316761;19;129562;-36
2022/04/22 09:30:59;;;;;;;11.55;1.67;;;;;;;20.07;47.90;98543.59;7314557;19;130265;-36
2022/04/22 09:33:25;;;;;;;27.27;2.67;;;;;;;20.14;47.46;98536.78;7314820;19;128884;-34
2022/04/22 09:44:24;;;;;;;29.20;3.03;;;;;;;20.36;47.92;98531.84;7314952;19;129377;-33
2022/04/22 09:47:09;;;;;;;21.17;2.38;;;;;;;20.29;49.22;98525.66;7315021;19;129260;-36
2022/04/22 09:49:43;;;;;;;16.33;1.90;;;;;;;20.25;50.24;98533.94;7316405;19;130368;-35
2022/04/22 09:52:09;;;;;;;27.70;2.85;;;;;;;20.30;50.15;98518.63;7312217;19;129265;-38
2022/04/22 09:54:34;;;;;;;18.52;1.98;;;;;;;20.30;50.15;98523.84;7313613;19;128853;-40
2022/04/22 09:57:03;;;;;;;18.60;1.92;;;;;;;20.30;50.93;98522.06;7313501;19;129030;-32
2022/04/22 09:59:32;;;;;;;32.90;3.47;;;;;;;20.32;50.62;98519.28;7313871;19;129811;-38
2022/04/22 10:01:58;;;;;;;22.98;2.53;;;;;;;20.31;50.79;98507.22;7312315;19;131764;-37
2022/04/22 10:04:23;;;;;;;38.07;3.77;;;;;;;20.33;51.25;98520.91;7315078;19;129048;-35
2022/04/22 10:06:50;;;;;;;34.90;3.40;;;;;;;20.35;51.19;98513.75;7311530;19;154031;-34
2022/04/22 10:09:16;;;;;;;24.55;2.47;;;;;;;20.34;51.86;98515.56;7314565;19;130671;-40
2022/04/22 10:11:43;;;;;;;23.93;2.67;;;;;;;20.31;52.15;98513.22;7313667;19;129701;-35
2022/04/22 10:14:10;;;;;;;27.30;3.03;;;;;;;20.31;51.36;98509.81;7313520;19;129136;-39
2022/04/22 10:16:36;;;;;;;41.67;4.22;;;;;;;20.01;48.34;98507.69;7313255;19;129048;-33
2022/04/22 10:19:03;;;;;;;31.17;3.17;;;;;;;19.92;48.77;98493.78;7313224;19;130422;-35
2022/04/22 10:21:28;;;;;;;23.98;2.47;;;;;;;19.99;48.57;98496.59;7312358;19;129667;-31
2022/04/22 10:23:56;;;;;;;25.40;2.50;;;;;;;20.05;48.32;98511.63;7312494;19;143265;-35
2022/04/22 10:26:22;;;;;;;28.40;2.95;;;;;;;20.08;47.88;98500.91;7313423;19;128782;-34
2022/04/22 10:28:48;;;;;;;57.97;5.30;;;;;;;20.08;48.11;98506.13;7310722;19;130089;-32
2022/04/22 10:31:14;;;;;;;23.27;2.37;;;;;;;20.10;47.85;98496.31;7310931;19;130828;-35
2022/04/22 10:33:45;;;;;;;24.97;2.30;;;;;;;20.07;47.28;98487.03;7312216;19;129031;-37
2022/04/22 10:36:18;;;;;;;26.38;2.45;;;;;;;20.11;46.98;98493.56;7310670;19;129998;-36
2022/04/22 10:38:48;;;;;;;24.05;2.55;;;;;;;20.13;46.98;98490.81;7315236;19;130375;-36
2022/04/22 10:41:17;;;;;;;38.08;3.22;;;;;;;20.21;47.69;98488.25;7311240;19;130412;-41
2022/04/22 10:43:45;;;;;;;30.85;3.22;;;;;;;20.26;47.82;98473.75;7313884;19;128814;-31
2022/04/22 10:49:42;;;;;;;18.40;1.83;;;;;;;20.29;50.47;98493.50;7315623;19;129537;-32
2022/04/22 10:52:21;;;;;;;18.33;1.88;;;;;;;20.31;50.80;98488.94;7309965;19;129744;-32
2022/04/22 10:54:53;;;;;;;26.70;2.72;;;;;;;20.29;51.08;98488.28;7312641;19;129369;-32
2022/04/22 10:57:23;;;;;;;35.05;3.15;;;;;;;20.32;50.37;98495.78;7313154;19;129003;-37
2022/04/22 11:00:01;;;;;;;26.55;2.78;;;;;;;20.25;51.72;98481.72;7309589;19;129129;-36
2022/04/22 11:02:31;;;;;;;25.60;2.55;;;;;;;20.33;51.19;98494.81;7313312;19;129768;-33
2022/04/22 11:05:18;;;;;;;55.38;5.07;;;;;;;20.33;51.67;98490.41;7311459;19;129422;-37
2022/04/22 11:07:50;;;;;;;24.77;2.53;;;;;;;20.35;51.84;98498.06;7312803;19;129352;-34
2022/04/22 11:10:15;;;;;;;22.25;2.42;;;;;;;20.35;50.90;98498.06;7308321;19;158853;-36
2022/04/22 11:12:51;;;;;;;20.00;2.20;;;;;;;20.18;48.71;98493.78;7313683;19;131015;-38
2022/04/22 11:15:47;;;;;;;34.88;3.38;;;;;;;20.05;48.96;98495.97;7311042;19;129689;-35
2022/04/22 11:18:14;;;;;;;21.40;2.20;;;;;;;20.05;48.03;98495.97;7313689;19;131356;-34
2022/04/22 11:20:45;;;;;;;21.88;2.20;;;;;;;20.09;48.26;98485.09;7312188;19;129598;-32
2022/04/22 11:23:12;;;;;;;20.52;1.98;;;;;;;20.08;47.45;98495.69;7312214;19;129335;-34
2022/04/22 11:25:38;;;;;;;14.93;2.10;;;;;;;20.08;47.49;98488.66;7311701;19;129802;-35
2022/04/22 11:28:04;;;;;;;17.02;1.88;;;;;;;20.16;47.04;98493.13;7313224;19;128909;-37
2022/04/22 11:30:32;;;;;;;29.05;2.53;;;;;;;20.09;47.17;98489.47;7311361;19;130134;-36
2022/04/22 11:33:26;;;;;;;18.67;1.80;;;;;;;20.11;47.37;98477.91;7311879;19;129394;-40
2022/04/22 11:35:54;;;;;;;13.95;1.90;;;;;;;20.08;47.49;98480.03;7311708;19;128967;-37
2022/04/22 11:38:20;;;;;;;32.10;3.13;;;;;;;20.16;47.05;98487.91;7313231;19;129222;-36
2022/04/22 11:40:48;;;;;;;15.17;1.93;;;;;;;20.32;48.20;98487.97;7312168;19;129405;-33
2022/04/22 11:43:18;;;;;;;21.05;2.20;;;;;;;20.20;48.90;98484.00;7311909;19;130393;-36
2022/04/22 11:45:48;;;;;;;12.05;1.52;;;;;;;20.27;49.66;98495.44;7311414;19;129054;-34
2022/04/22 11:48:17;;;;;;;17.05;1.90;;;;;;;20.29;49.93;98488.28;7313474;19;129450;-35
2022/04/22 11:50:45;;;;;;;26.30;2.72;;;;;;;20.30;50.36;98495.13;7310474;19;130924;-34
2022/04/22 11:53:19;;;;;;;23.25;2.17;;;;;;;20.33;50.70;98495.63;7311198;19;130711;-35
2022/04/22 11:55:47;;;;;;;27.08;2.72;;;;;;;20.33;50.36;98490.41;7311656;19;128884;-33
2022/04/22 11:58:15;;;;;;;20.48;2.28;;;;;;;20.33;50.56;98489.59;7312436;19;130236;-35
2022/04/22 12:06:14;;;;;;;;;;;;;;;20.38;51.49;98497.75;7311933;19;129125;-34
2022/04/22 12:09:00;;;;;;;18.15;2.10;;;;;;;20.36;51.59;98489.28;7312462;19;128993;-36
2022/04/22 12:11:25;;;;;;;31.95;3.22;;;;;;;20.14;48.81;98479.38;7309689;19;130612;-36
2022/04/22 12:13:52;;;;;;;19.65;2.15;;;;;;;20.02;48.17;98480.63;7309305;19;129291;-36
2022/04/22 12:16:19;;;;;;;25.25;2.63;;;;;;;20.03;48.17;98487.50;7309176;19;128932;-35
2022/04/22 12:18:47;;;;;;;24.27;2.58;;;;;;;20.05;47.76;98482.91;7311294;19;128863;-36